createdAt,value
2024-04-22T00:01:17.359Z,74.19
2024-04-22T00:03:44.845Z,73.85
2024-04-22T00:06:12.369Z,73.98
2024-04-22T00:08:39.762Z,73.84
2024-04-22T00:11:07.416Z,73.89
2024-04-22T00:13:35.632Z,73.75
2024-04-22T00:16:03.129Z,73.84
2024-04-22T00:18:30.533Z,73.60
2024-04-22T00:20:58.158Z,73.72
2024-04-22T00:23:25.673Z,73.51
2024-04-22T00:25:53.066Z,73.38
2024-04-22T00:28:20.587Z,73.36
2024-04-22T00:30:48.074Z,73.47
2024-04-22T00:33:15.672Z,73.42
2024-04-22T00:35:43.340Z,73.29
2024-04-22T00:38:10.725Z,73.31
2024-04-22T00:40:38.509Z,73.03
2024-04-22T00:43:06.356Z,73.08
2024-04-22T00:45:35.037Z,72.83
2024-04-22T00:48:02.638Z,73.02
2024-04-22T00:50:31.156Z,72.65
2024-04-22T00:53:00.263Z,72.53
2024-04-22T00:55:28.411Z,72.57
2024-04-22T00:57:58.561Z,72.78
2024-04-22T01:00:27.113Z,72.34
2024-04-22T01:02:55.192Z,72.52
2024-04-22T01:05:22.692Z,72.46
2024-04-22T01:07:50.269Z,72.45
2024-04-22T01:10:18.000Z,72.08
2024-04-22T01:12:45.508Z,72.43
2024-04-22T01:15:12.942Z,72.33
2024-04-22T01:17:41.956Z,72.27
2024-04-22T01:20:10.305Z,71.96
2024-04-22T01:22:37.825Z,72.23
2024-04-22T01:25:06.432Z,71.80
2024-04-22T01:27:35.001Z,71.77
2024-04-22T01:30:04.056Z,72.12
2024-04-22T01:32:32.921Z,71.99
2024-04-22T01:35:01.910Z,71.97
2024-04-22T01:37:30.563Z,71.94
2024-04-22T01:39:58.180Z,71.75
2024-04-22T01:42:25.880Z,71.97
2024-04-22T01:44:53.523Z,71.99
2024-04-22T01:47:20.967Z,71.86
2024-04-22T01:49:48.535Z,71.67
2024-04-22T01:52:16.070Z,72.01
2024-04-22T01:54:43.636Z,71.96
2024-04-22T01:57:11.168Z,71.78
2024-04-22T01:59:38.581Z,72.15
2024-04-22T02:02:06.124Z,71.69
2024-04-22T02:04:33.678Z,72.18
2024-04-22T02:07:01.133Z,71.64
2024-04-22T02:09:28.603Z,72.19
2024-04-22T02:11:56.285Z,72.22
2024-04-22T02:14:23.846Z,71.87
2024-04-22T02:16:51.397Z,72.23
2024-04-22T02:19:18.891Z,72.12
2024-04-22T02:21:46.363Z,72.20
2024-04-22T02:24:13.743Z,72.28
2024-04-22T02:26:41.252Z,72.34
2024-04-22T02:29:08.730Z,72.43
2024-04-22T02:31:36.240Z,72.61
2024-04-22T02:34:03.810Z,72.41
2024-04-22T02:36:32.149Z,72.64
2024-04-22T02:38:59.631Z,72.54
2024-04-22T02:41:27.176Z,72.62
2024-04-22T02:43:54.702Z,73.01
2024-04-22T02:46:22.265Z,72.75
2024-04-22T02:48:49.846Z,73.14
2024-04-22T02:51:17.261Z,73.13
2024-04-22T02:53:44.657Z,72.95
2024-04-22T02:56:12.108Z,73.04
2024-04-22T02:58:42.569Z,73.34
2024-04-22T03:01:12.051Z,73.53
2024-04-22T03:03:39.634Z,73.53
2024-04-22T03:06:07.342Z,73.34
2024-04-22T03:08:35.096Z,73.67
2024-04-22T03:11:02.667Z,73.73
2024-04-22T03:13:30.177Z,73.57
2024-04-22T03:15:57.819Z,73.86
2024-04-22T03:18:25.405Z,73.81
2024-04-22T03:20:52.818Z,73.71
2024-04-22T03:23:20.263Z,73.75
2024-04-22T03:25:47.722Z,73.96
2024-04-22T03:28:15.124Z,74.29
2024-04-22T03:30:42.559Z,74.09
2024-04-22T03:33:10.060Z,74.28
2024-04-22T03:35:37.517Z,74.34
2024-04-22T03:38:05.123Z,74.30
2024-04-22T03:40:32.683Z,74.51
2024-04-22T03:43:00.194Z,74.63
2024-04-22T03:45:27.694Z,74.53
2024-04-22T03:48:13.766Z,74.37
2024-04-22T03:50:42.594Z,74.81
2024-04-22T03:53:10.347Z,74.92
2024-04-22T03:55:38.734Z,74.87
2024-04-22T03:58:06.296Z,74.69
2024-04-22T04:00:33.866Z,75.04
2024-04-22T04:03:01.467Z,74.83
2024-04-22T04:05:28.961Z,74.96
2024-04-22T04:07:56.420Z,75.12
2024-04-22T04:10:23.886Z,75.26
2024-04-22T04:12:51.326Z,75.27
2024-04-22T04:15:18.719Z,75.17
2024-04-22T04:17:46.269Z,75.23
2024-04-22T04:20:13.680Z,75.47
2024-04-22T04:22:41.181Z,75.59
2024-04-22T04:25:08.828Z,75.22
2024-04-22T04:27:36.302Z,75.20
2024-04-22T04:30:05.006Z,75.61
2024-04-22T04:32:33.099Z,75.62
2024-04-22T04:35:00.659Z,75.83
2024-04-22T04:37:28.148Z,75.81
2024-04-22T04:39:55.829Z,75.97
2024-04-22T04:42:23.228Z,75.72
2024-04-22T04:44:50.612Z,75.72
2024-04-22T04:47:18.141Z,75.90
2024-04-22T04:49:45.838Z,75.98
2024-04-22T04:52:13.259Z,76.15
2024-04-22T04:54:40.801Z,76.17
2024-04-22T04:57:08.191Z,76.00
2024-04-22T04:59:35.637Z,76.11
2024-04-22T05:02:03.278Z,76.20
2024-04-22T05:04:30.725Z,76.39
2024-04-22T05:06:58.222Z,76.07
2024-04-22T05:09:25.790Z,76.44
2024-04-22T05:11:53.290Z,76.56
2024-04-22T05:14:20.777Z,76.46
2024-04-22T05:16:48.361Z,76.60
2024-04-22T05:19:15.978Z,76.67
2024-04-22T05:21:44.072Z,76.50
2024-04-22T05:24:12.287Z,76.80
2024-04-22T05:26:39.695Z,76.60
2024-04-22T05:29:07.223Z,77.02
2024-04-22T05:31:34.853Z,76.75
2024-04-22T05:34:20.966Z,76.82
2024-04-22T05:36:48.529Z,76.90
2024-04-22T05:39:15.985Z,76.87
2024-04-22T05:41:43.579Z,77.26
2024-04-22T05:44:11.139Z,77.28
2024-04-22T05:46:38.619Z,77.31
2024-04-22T05:49:06.541Z,77.19
2024-04-22T05:51:34.130Z,77.28
2024-04-22T05:54:01.574Z,77.39
2024-04-22T05:56:29.055Z,77.19
2024-04-22T05:58:56.598Z,77.48
2024-04-22T06:01:24.162Z,77.32
2024-04-22T06:03:51.826Z,77.35
2024-04-22T06:06:19.288Z,77.34
2024-04-22T06:08:46.689Z,77.49
2024-04-22T06:11:14.226Z,77.34
2024-04-22T06:13:41.800Z,77.33
2024-04-22T06:16:09.421Z,77.33
2024-04-22T06:18:37.438Z,77.32
2024-04-22T06:21:05.210Z,77.37
2024-04-22T06:23:34.065Z,77.48
2024-04-22T06:26:07.972Z,77.33
2024-04-22T06:28:35.863Z,77.32
2024-04-22T06:31:03.979Z,77.20
2024-04-22T06:33:31.771Z,77.19
2024-04-22T06:35:59.218Z,77.11
2024-04-22T06:38:29.564Z,77.15
2024-04-22T06:40:57.120Z,77.15
2024-04-22T06:43:24.566Z,77.00
2024-04-22T06:45:51.945Z,76.92
2024-04-22T06:48:19.497Z,76.82
2024-04-22T06:50:49.318Z,76.85
2024-04-22T06:53:19.144Z,76.72
2024-04-22T06:55:46.822Z,76.58
2024-04-22T06:58:14.301Z,76.54
2024-04-22T07:00:41.901Z,76.41
2024-04-22T07:03:09.649Z,76.41
2024-04-22T07:05:37.213Z,76.38
2024-04-22T07:08:04.958Z,76.24
2024-04-22T07:10:32.632Z,75.99
2024-04-22T07:13:00.254Z,75.87
2024-04-22T07:15:27.688Z,75.74
2024-04-22T07:17:55.293Z,75.63
2024-04-22T07:20:22.806Z,75.47
2024-04-22T07:22:50.267Z,75.45
2024-04-22T07:25:19.461Z,75.17
2024-04-22T07:27:47.147Z,75.12
2024-04-22T07:30:15.273Z,75.14
2024-04-22T07:32:43.255Z,74.92
2024-04-22T07:35:12.482Z,74.75
2024-04-22T07:37:47.278Z,74.65
2024-04-22T07:40:19.995Z,74.62
2024-04-22T07:42:48.537Z,74.33
2024-04-22T07:45:18.532Z,74.26
2024-04-22T07:47:46.784Z,74.12
2024-04-22T07:50:14.637Z,73.94
2024-04-22T07:52:42.825Z,73.94
2024-04-22T07:55:12.631Z,73.65
2024-04-22T07:57:43.790Z,73.47
2024-04-22T08:00:13.447Z,73.41
2024-04-22T08:02:41.753Z,73.10
2024-04-22T08:05:10.301Z,72.99
2024-04-22T08:07:41.183Z,72.81
2024-04-22T08:10:08.822Z,72.76
2024-04-22T08:12:38.321Z,72.57
2024-04-22T08:15:05.965Z,72.40
2024-04-22T08:17:33.615Z,72.27
2024-04-22T08:20:01.228Z,71.95
2024-04-22T08:22:29.290Z,71.98
2024-04-22T08:24:57.170Z,71.65
2024-04-22T08:27:24.872Z,71.70
2024-04-22T08:29:55.246Z,71.38
2024-04-22T08:32:23.414Z,71.17
2024-04-22T08:34:52.358Z,71.21
2024-04-22T08:37:19.824Z,70.98
2024-04-22T08:39:47.332Z,70.86
2024-04-22T08:42:16.234Z,70.77
2024-04-22T08:44:43.789Z,70.66
2024-04-22T08:47:11.334Z,70.59
2024-04-22T08:49:39.006Z,70.43
2024-04-22T08:52:06.890Z,70.23
2024-04-22T08:54:36.701Z,70.21
2024-04-22T08:57:06.051Z,70.09
2024-04-22T08:59:39.894Z,69.87
2024-04-22T09:02:09.262Z,69.88
2024-04-22T09:04:37.196Z,69.74
2024-04-22T09:07:09.487Z,69.62
2024-04-22T09:09:47.799Z,69.53
2024-04-22T09:12:24.831Z,69.49
2024-04-22T09:15:02.945Z,69.50
2024-04-22T09:17:31.220Z,69.26
2024-04-22T09:19:59.079Z,69.36
2024-04-22T09:22:26.595Z,69.12
2024-04-22T09:24:54.776Z,68.96
2024-04-22T09:27:23.285Z,68.97
2024-04-22T09:29:53.296Z,68.98
2024-04-22T09:32:22.534Z,68.78
2024-04-22T09:34:51.381Z,68.92
2024-04-22T09:37:18.946Z,68.73
2024-04-22T09:39:47.106Z,68.81
2024-04-22T09:42:14.799Z,68.73
2024-04-22T09:44:43.610Z,68.67
2024-04-22T09:47:11.525Z,68.67
2024-04-22T09:49:39.980Z,68.67
2024-04-22T09:52:08.978Z,68.62
2024-04-22T09:54:36.592Z,68.67
2024-04-22T09:57:05.994Z,68.51
2024-04-22T09:59:33.605Z,68.67
2024-04-22T10:02:01.260Z,68.53
2024-04-22T10:04:29.044Z,68.64
2024-04-22T10:06:56.804Z,68.68
2024-04-22T10:09:24.690Z,69.02
2024-04-22T10:11:53.475Z,68.99
2024-04-22T10:14:22.504Z,68.91
2024-04-22T10:17:02.853Z,68.91
2024-04-22T10:19:35.306Z,68.97
2024-04-22T10:22:04.886Z,68.84
2024-04-22T10:24:40.216Z,69.04
2024-04-22T10:27:13.396Z,68.92
2024-04-22T10:29:44.566Z,68.88
2024-04-22T10:32:12.119Z,68.82
2024-04-22T10:34:45.825Z,68.91
2024-04-22T10:37:14.680Z,69.06
2024-04-22T10:39:44.147Z,69.04
2024-04-22T10:42:12.487Z,69.03
2024-04-22T10:44:42.597Z,69.20
2024-04-22T10:47:10.072Z,69.38
2024-04-22T10:49:38.234Z,69.45
2024-04-22T10:52:06.197Z,69.29
2024-04-22T10:54:33.745Z,69.54
2024-04-22T10:57:01.596Z,69.60
2024-04-22T10:59:29.952Z,69.64
2024-04-22T11:01:58.270Z,69.84
2024-04-22T11:04:26.199Z,69.77
2024-04-22T11:06:53.825Z,69.90
2024-04-22T11:09:21.640Z,69.96
2024-04-22T11:11:50.196Z,70.07
2024-04-22T11:14:17.801Z,70.12
2024-04-22T11:16:45.220Z,70.17
2024-04-22T11:19:12.986Z,70.16
2024-04-22T11:21:41.423Z,70.21
2024-04-22T11:24:09.379Z,70.26
2024-04-22T11:26:37.883Z,70.60
2024-04-22T11:29:05.902Z,70.51
2024-04-22T11:31:35.793Z,70.56
2024-04-22T11:34:03.252Z,70.75
2024-04-22T11:36:35.373Z,70.84
2024-04-22T11:39:16.294Z,70.80
2024-04-22T11:41:44.278Z,71.04
2024-04-22T11:44:11.797Z,71.10
2024-04-22T11:46:41.222Z,71.18
2024-04-22T11:49:08.897Z,71.10
2024-04-22T11:51:36.461Z,71.19
2024-04-22T11:54:05.955Z,71.26
2024-04-22T11:56:41.708Z,71.46
2024-04-22T11:59:09.273Z,71.25
2024-04-22T12:01:36.971Z,71.62
2024-04-22T12:04:04.633Z,71.81
2024-04-22T12:06:32.380Z,71.83
2024-04-22T12:09:03.143Z,71.96
2024-04-22T12:11:33.091Z,71.96
2024-04-22T12:14:02.038Z,72.22
2024-04-22T12:16:29.727Z,72.06
2024-04-22T12:18:57.312Z,72.18
2024-04-22T12:21:24.674Z,72.33
2024-04-22T12:23:52.077Z,72.34
2024-04-22T12:26:19.600Z,72.33
2024-04-22T12:28:47.179Z,72.54
2024-04-22T12:31:14.897Z,72.57
2024-04-22T12:33:53.774Z,72.61
2024-04-22T12:36:29.758Z,72.72
2024-04-22T12:38:57.259Z,72.73
2024-04-22T12:41:24.750Z,73.00
2024-04-22T12:43:52.350Z,73.00
2024-04-22T12:46:19.940Z,73.17
2024-04-22T12:49:05.949Z,73.03
2024-04-22T12:51:33.476Z,73.26
2024-04-22T12:54:00.974Z,73.40
2024-04-22T12:56:29.750Z,73.40
2024-04-22T12:58:59.849Z,73.38
2024-04-22T13:01:28.117Z,73.49
2024-04-22T13:03:55.720Z,73.61
2024-04-22T13:06:23.233Z,73.78
2024-04-22T13:08:50.641Z,73.57
2024-04-22T13:11:22.788Z,73.79
2024-04-22T13:13:50.412Z,73.85
2024-04-22T13:16:17.925Z,73.94
2024-04-22T13:18:45.553Z,73.94
2024-04-22T13:21:13.088Z,73.91
2024-04-22T13:23:40.459Z,74.00
2024-04-22T13:26:08.074Z,74.10
2024-04-22T13:28:35.527Z,74.11
2024-04-22T13:31:05.163Z,74.21
2024-04-22T13:33:32.768Z,74.21
2024-04-22T13:36:01.396Z,74.30
2024-04-22T13:38:28.923Z,74.36
2024-04-22T13:40:56.429Z,74.25
2024-04-22T13:43:25.011Z,74.45
2024-04-22T13:45:52.584Z,74.28
2024-04-22T13:48:20.219Z,74.54
2024-04-22T13:50:47.920Z,74.50
2024-04-22T13:53:23.632Z,74.25
2024-04-22T13:55:59.833Z,74.49
2024-04-22T13:58:27.608Z,74.56
2024-04-22T14:00:55.640Z,74.61
2024-04-22T14:03:23.235Z,74.74
2024-04-22T14:05:53.496Z,74.76
2024-04-22T14:08:21.000Z,74.85
2024-04-22T14:10:48.584Z,74.84
2024-04-22T14:13:16.072Z,75.06
2024-04-22T14:15:47.603Z,74.99
2024-04-22T14:18:16.076Z,75.06
2024-04-22T14:20:44.303Z,75.00
2024-04-22T14:23:11.764Z,74.88
2024-04-22T14:25:39.351Z,75.07
2024-04-22T14:28:07.115Z,75.17
2024-04-22T14:30:34.602Z,75.21
2024-04-22T14:33:02.225Z,75.22
2024-04-22T14:35:29.797Z,75.27
2024-04-22T14:37:57.365Z,75.29
2024-04-22T14:40:25.092Z,75.36
2024-04-22T14:42:52.674Z,75.29
2024-04-22T14:45:20.317Z,75.30
2024-04-22T14:47:47.804Z,75.32
2024-04-22T14:50:15.442Z,75.29
2024-04-22T14:52:43.005Z,75.29
2024-04-22T14:55:11.081Z,75.40
2024-04-22T14:57:38.857Z,75.33
2024-04-22T15:00:07.266Z,75.13
2024-04-22T15:02:34.714Z,75.46
2024-04-22T15:05:06.263Z,75.53
2024-04-22T15:07:34.929Z,75.53
2024-04-22T15:10:03.236Z,75.63
2024-04-22T15:12:30.940Z,75.56
2024-04-22T15:14:59.239Z,75.69
2024-04-22T15:17:27.121Z,75.52
2024-04-22T15:19:54.713Z,75.76
2024-04-22T15:22:22.398Z,75.81
2024-04-22T15:24:49.870Z,75.85
2024-04-22T15:27:17.349Z,75.81
2024-04-22T15:29:44.828Z,75.99
2024-04-22T15:32:12.676Z,75.94
2024-04-22T15:34:42.127Z,76.08
2024-04-22T15:37:10.027Z,76.11
2024-04-22T15:39:37.587Z,76.13
2024-04-22T15:42:05.323Z,76.17
2024-04-22T15:44:33.520Z,76.21
2024-04-22T15:47:01.889Z,76.32
2024-04-22T15:49:29.530Z,76.19
2024-04-22T15:51:58.751Z,76.35
2024-04-22T15:54:27.887Z,76.41
2024-04-22T15:56:55.366Z,76.45
2024-04-22T15:59:22.830Z,76.43
2024-04-22T16:01:50.530Z,76.43
2024-04-22T16:04:18.670Z,76.58
2024-04-22T16:06:46.114Z,76.48
2024-04-22T16:09:13.829Z,76.56
2024-04-22T16:11:41.425Z,76.60
2024-04-22T16:14:10.015Z,76.63
2024-04-22T16:16:37.647Z,76.68
2024-04-22T16:19:05.186Z,76.69
2024-04-22T16:21:32.655Z,76.72
2024-04-22T16:24:00.386Z,76.69
2024-04-22T16:26:28.028Z,76.67
2024-04-22T16:28:55.695Z,76.81
2024-04-22T16:31:23.282Z,76.70
2024-04-22T16:33:50.778Z,76.75
2024-04-22T16:36:18.211Z,76.90
2024-04-22T16:38:45.882Z,76.85
2024-04-22T16:41:13.397Z,76.88
2024-04-22T16:43:41.254Z,76.85
2024-04-22T16:46:10.898Z,77.08
2024-04-22T16:48:40.544Z,77.01
2024-04-22T16:51:08.047Z,77.11
2024-04-22T16:53:35.656Z,77.08
2024-04-22T16:56:03.098Z,77.07
2024-04-22T16:58:33.142Z,77.16
2024-04-22T17:01:00.677Z,77.28
2024-04-22T17:03:28.696Z,77.33
2024-04-22T17:05:57.077Z,77.27
2024-04-22T17:08:24.449Z,77.30
2024-04-22T17:10:52.656Z,77.36
2024-04-22T17:13:20.876Z,77.48
2024-04-22T17:15:48.871Z,77.56
2024-04-22T17:18:17.016Z,77.36
2024-04-22T17:20:53.657Z,77.48
2024-04-22T17:23:25.006Z,77.60
2024-04-22T17:25:52.521Z,77.50
2024-04-22T17:28:22.175Z,78.00
2024-04-22T17:30:54.218Z,77.73
2024-04-22T17:33:21.838Z,77.71
2024-04-22T17:35:51.024Z,77.74
2024-04-22T17:38:25.747Z,77.72
2024-04-22T17:40:55.583Z,77.84
2024-04-22T17:43:23.799Z,77.90
2024-04-22T17:46:04.694Z,77.97
2024-04-22T17:48:33.444Z,77.84
2024-04-22T17:51:02.063Z,77.94
2024-04-22T17:53:30.642Z,78.01
2024-04-22T17:55:58.949Z,78.12
2024-04-22T17:58:28.676Z,78.06
2024-04-22T18:00:56.682Z,78.05
2024-04-22T18:03:25.345Z,78.12
2024-04-22T18:05:53.667Z,78.39
2024-04-22T18:08:21.799Z,78.15
2024-04-22T18:10:50.706Z,78.29
2024-04-22T18:13:19.002Z,78.21
2024-04-22T18:15:47.732Z,78.19
2024-04-22T18:18:16.114Z,78.34
2024-04-22T18:20:44.697Z,78.31
2024-04-22T18:23:13.110Z,78.43
2024-04-22T18:25:42.248Z,78.65
2024-04-22T18:28:10.621Z,78.65
2024-04-22T18:30:42.848Z,78.59
2024-04-22T18:33:18.617Z,78.59
2024-04-22T18:35:55.547Z,78.81
2024-04-22T18:38:24.930Z,78.91
2024-04-22T18:40:53.393Z,78.85
2024-04-22T18:43:22.028Z,78.97
2024-04-22T18:45:50.670Z,79.04
2024-04-22T18:48:19.259Z,78.81
2024-04-22T18:50:51.905Z,78.92
2024-04-22T18:53:21.930Z,78.94
2024-04-22T18:55:51.145Z,79.01
2024-04-22T18:58:19.774Z,78.95
2024-04-22T19:00:52.392Z,78.99
2024-04-22T19:03:21.613Z,79.22
2024-04-22T19:05:50.906Z,79.36
2024-04-22T19:08:20.324Z,79.32
2024-04-22T19:10:48.959Z,79.55
2024-04-22T19:13:18.631Z,79.33
2024-04-22T19:15:47.233Z,79.36
2024-04-22T19:18:15.661Z,79.42
2024-04-22T19:20:44.166Z,79.28
2024-04-22T19:23:12.156Z,79.50
2024-04-22T19:25:42.218Z,79.69
2024-04-22T19:28:10.071Z,79.70
2024-04-22T19:30:41.507Z,79.68
2024-04-22T19:33:11.154Z,79.51
2024-04-22T19:35:39.737Z,79.66
2024-04-22T19:38:08.775Z,79.73
2024-04-22T19:40:37.973Z,79.70
2024-04-22T19:43:06.408Z,79.80
2024-04-22T19:45:34.022Z,79.92
2024-04-22T19:48:02.029Z,79.93
2024-04-22T19:50:32.132Z,79.98
2024-04-22T19:53:00.795Z,79.76
2024-04-22T19:55:29.650Z,79.95
2024-04-22T19:57:58.526Z,79.95
2024-04-22T20:00:28.246Z,80.06
2024-04-22T20:02:57.059Z,80.19
2024-04-22T20:05:25.755Z,80.19
2024-04-22T20:07:54.947Z,80.05
2024-04-22T20:10:23.158Z,80.33
2024-04-22T20:12:52.350Z,80.17
2024-04-22T20:15:41.870Z,80.06
2024-04-22T20:18:16.056Z,80.11
2024-04-22T20:20:47.825Z,80.23
2024-04-22T20:23:15.564Z,80.27
2024-04-22T20:25:43.152Z,80.27
2024-04-22T20:28:10.803Z,80.18
2024-04-22T20:30:38.538Z,80.33
2024-04-22T20:33:06.726Z,80.32
2024-04-22T20:35:37.709Z,80.33
2024-04-22T20:38:06.874Z,80.36
2024-04-22T20:40:34.293Z,80.15
2024-04-22T20:43:01.736Z,80.24
2024-04-22T20:45:31.185Z,80.59
2024-04-22T20:47:58.618Z,80.35
2024-04-22T20:50:26.058Z,80.49
2024-04-22T20:52:55.287Z,80.56
2024-04-22T20:55:22.747Z,80.56
2024-04-22T20:57:50.284Z,80.41
2024-04-22T21:00:17.883Z,80.45
2024-04-22T21:02:45.460Z,80.41
2024-04-22T21:05:13.123Z,80.63
2024-04-22T21:07:40.595Z,80.64
2024-04-22T21:10:08.208Z,80.48
2024-04-22T21:12:35.604Z,80.74
2024-04-22T21:15:03.189Z,80.45
2024-04-22T21:17:30.685Z,80.83
2024-04-22T21:19:58.675Z,80.48
2024-04-22T21:22:26.217Z,80.77
2024-04-22T21:24:53.677Z,80.58
2024-04-22T21:27:21.161Z,80.51
2024-04-22T21:29:48.771Z,80.68
2024-04-22T21:32:18.176Z,80.68
2024-04-22T21:34:45.752Z,80.69
2024-04-22T21:37:13.280Z,80.59
2024-04-22T21:39:40.918Z,80.60
2024-04-22T21:42:08.337Z,80.69
2024-04-22T21:44:35.862Z,80.64
2024-04-22T21:47:03.325Z,80.67
2024-04-22T21:49:30.804Z,80.80
2024-04-22T21:51:58.213Z,80.71
2024-04-22T21:54:25.686Z,80.67
2024-04-22T21:56:53.196Z,80.72
2024-04-22T21:59:58.300Z,80.65
2024-04-22T22:03:03.385Z,80.83
2024-04-22T22:06:08.656Z,80.77
2024-04-22T22:08:35.834Z,80.64
2024-04-22T22:11:03.624Z,80.73
2024-04-22T22:13:31.218Z,80.57
2024-04-22T22:15:59.615Z,80.73
2024-04-22T22:18:27.164Z,80.59
2024-04-22T22:20:54.612Z,80.86
2024-04-22T22:23:22.121Z,80.70
2024-04-22T22:25:49.578Z,80.67
2024-04-22T22:28:17.007Z,80.81
2024-04-22T22:30:44.600Z,80.66
2024-04-22T22:33:12.143Z,80.85
2024-04-22T22:35:39.598Z,80.92
2024-04-22T22:38:07.132Z,80.69
2024-04-22T22:40:34.591Z,80.65
2024-04-22T22:43:01.987Z,80.74
2024-04-22T22:45:29.539Z,80.65
2024-04-22T22:47:57.097Z,80.79
2024-04-22T22:50:24.548Z,80.84
2024-04-22T22:52:51.985Z,80.68
2024-04-22T22:55:19.346Z,80.92
2024-04-22T22:57:46.784Z,80.78
2024-04-22T23:00:14.576Z,80.94
2024-04-22T23:02:42.199Z,80.74
2024-04-22T23:05:09.744Z,80.82
2024-04-22T23:07:37.104Z,80.89
2024-04-22T23:10:04.798Z,80.99
2024-04-22T23:12:32.181Z,80.81
2024-04-22T23:14:59.617Z,80.90
2024-04-22T23:17:27.043Z,80.97
2024-04-22T23:19:55.142Z,80.89
2024-04-22T23:22:22.829Z,80.86
2024-04-22T23:24:50.519Z,81.12
2024-04-22T23:27:20.714Z,80.77
2024-04-22T23:29:48.552Z,80.84
2024-04-22T23:32:16.045Z,80.95
2024-04-22T23:34:43.634Z,81.06
2024-04-22T23:37:11.099Z,81.04
2024-04-22T23:39:38.627Z,80.92
2024-04-22T23:42:06.809Z,81.05
2024-04-22T23:44:34.391Z,80.96
2024-04-22T23:47:02.188Z,80.91
2024-04-22T23:49:29.689Z,81.04
2024-04-22T23:51:57.381Z,81.05
2024-04-22T23:54:24.751Z,81.00
2024-04-22T23:57:02.898Z,81.02
2024-04-22T23:59:30.846Z,81.09
